createdAt,value
2022-10-06T00:00:47.836Z,20.23
2022-10-06T00:03:15.068Z,20.30
2022-10-06T00:05:41.912Z,20.18
2022-10-06T00:08:10.286Z,20.22
2022-10-06T00:10:37.116Z,20.24
2022-10-06T00:13:03.668Z,20.28
2022-10-06T00:15:32.645Z,20.24
2022-10-06T00:17:59.596Z,20.27
2022-10-06T00:20:26.872Z,20.18
2022-10-06T00:22:53.430Z,20.18
2022-10-06T00:25:22.481Z,20.22
2022-10-06T00:27:50.760Z,20.16
2022-10-06T00:30:19.976Z,20.11
2022-10-06T00:32:53.624Z,20.07
2022-10-06T00:35:21.209Z,20.11
2022-10-06T00:37:47.848Z,20.05
2022-10-06T00:40:14.474Z,20.05
2022-10-06T00:42:55.465Z,20.11
2022-10-06T00:45:40.742Z,20.08
2022-10-06T00:48:12.458Z,20.03
2022-10-06T00:50:39.257Z,19.97
2022-10-06T00:53:06.189Z,20.07
2022-10-06T00:55:32.754Z,20.07
2022-10-06T00:58:00.155Z,20.00
2022-10-06T01:00:27.200Z,20.04
2022-10-06T01:03:10.128Z,20.08
2022-10-06T01:05:41.614Z,20.08
2022-10-06T01:08:08.876Z,20.07
2022-10-06T01:10:35.481Z,19.97
2022-10-06T01:13:02.336Z,20.00
2022-10-06T01:15:29.137Z,19.98
2022-10-06T01:18:01.120Z,19.88
2022-10-06T01:20:29.411Z,19.90
2022-10-06T01:22:59.853Z,19.92
2022-10-06T01:25:26.933Z,19.87
2022-10-06T01:27:54.942Z,19.92
2022-10-06T01:30:27.024Z,19.87
2022-10-06T01:32:53.556Z,19.88
2022-10-06T01:35:20.165Z,19.88
2022-10-06T01:37:46.716Z,19.92
2022-10-06T01:40:13.548Z,19.86
2022-10-06T01:42:40.088Z,19.82
2022-10-06T01:45:07.441Z,19.87
2022-10-06T01:47:34.692Z,19.87
2022-10-06T01:50:01.252Z,19.94
2022-10-06T01:52:27.801Z,19.80
2022-10-06T01:54:54.741Z,19.77
2022-10-06T01:57:21.444Z,19.83
2022-10-06T01:59:51.555Z,19.81
2022-10-06T02:02:21.107Z,19.76
2022-10-06T02:04:47.784Z,19.75
2022-10-06T02:07:14.326Z,19.79
2022-10-06T02:09:40.890Z,19.80
2022-10-06T02:12:07.413Z,19.75
2022-10-06T02:14:34.823Z,19.77
2022-10-06T02:17:01.431Z,19.71
2022-10-06T02:19:28.005Z,19.77
2022-10-06T02:21:54.564Z,19.73
2022-10-06T02:24:21.113Z,19.73
2022-10-06T02:26:47.656Z,19.79
2022-10-06T02:29:14.185Z,19.71
2022-10-06T02:31:40.801Z,19.73
2022-10-06T02:34:07.421Z,19.76
2022-10-06T02:36:33.939Z,19.80
2022-10-06T02:39:00.486Z,19.73
2022-10-06T02:41:27.035Z,19.82
2022-10-06T02:43:55.265Z,19.71
2022-10-06T02:46:22.430Z,19.68
2022-10-06T02:48:49.124Z,19.67
2022-10-06T02:51:18.032Z,19.70
2022-10-06T02:53:46.219Z,19.65
2022-10-06T02:56:23.715Z,19.68
2022-10-06T02:58:51.235Z,19.63
2022-10-06T03:01:19.554Z,19.66
2022-10-06T03:03:49.003Z,19.64
2022-10-06T03:06:24.748Z,19.61
2022-10-06T03:08:58.578Z,19.65
2022-10-06T03:11:38.981Z,19.59
2022-10-06T03:14:06.657Z,19.58
2022-10-06T03:16:41.344Z,19.69
2022-10-06T03:19:08.739Z,19.68
2022-10-06T03:21:37.082Z,19.70
2022-10-06T03:24:04.430Z,19.61
2022-10-06T03:26:33.513Z,19.56
2022-10-06T03:29:00.513Z,19.63
2022-10-06T03:31:27.858Z,19.56
2022-10-06T03:33:56.788Z,19.56
2022-10-06T03:36:25.235Z,19.55
2022-10-06T03:38:52.037Z,19.53
2022-10-06T03:41:29.463Z,19.56
2022-10-06T03:43:57.474Z,19.59
2022-10-06T03:46:26.792Z,19.55
2022-10-06T03:48:53.783Z,19.55
2022-10-06T03:51:26.926Z,19.61
2022-10-06T03:53:54.002Z,19.54
2022-10-06T03:56:28.641Z,19.53
2022-10-06T03:59:00.306Z,19.50
2022-10-06T04:01:38.339Z,19.55
2022-10-06T04:04:05.909Z,19.53
2022-10-06T04:06:34.864Z,19.36
2022-10-06T04:09:01.544Z,19.48
2022-10-06T04:11:30.070Z,19.54
2022-10-06T04:14:08.564Z,19.46
2022-10-06T04:16:37.185Z,19.48
2022-10-06T04:19:05.747Z,19.48
2022-10-06T04:21:36.648Z,19.55
2022-10-06T04:24:03.877Z,19.45
2022-10-06T04:26:33.933Z,19.46
2022-10-06T04:29:03.315Z,19.46
2022-10-06T04:31:38.996Z,19.44
2022-10-06T04:34:06.759Z,19.41
2022-10-06T04:36:39.526Z,19.43
2022-10-06T04:39:08.983Z,19.40
2022-10-06T04:41:36.993Z,19.43
2022-10-06T04:44:04.693Z,19.42
2022-10-06T04:46:47.704Z,19.44
2022-10-06T04:49:19.638Z,19.36
2022-10-06T04:51:48.364Z,19.37
2022-10-06T04:54:15.002Z,19.42
2022-10-06T04:56:41.653Z,19.38
2022-10-06T04:59:08.317Z,19.35
2022-10-06T05:01:36.570Z,19.31
2022-10-06T05:04:04.572Z,19.36
2022-10-06T05:06:41.851Z,19.35
2022-10-06T05:09:15.757Z,19.34
2022-10-06T05:11:42.588Z,19.32
2022-10-06T05:14:09.161Z,19.33
2022-10-06T05:16:38.073Z,19.30
2022-10-06T05:19:05.128Z,19.29
2022-10-06T05:21:32.308Z,19.32
2022-10-06T05:23:59.228Z,19.29
2022-10-06T05:26:28.274Z,19.30
2022-10-06T05:28:54.960Z,19.30
2022-10-06T05:31:23.690Z,19.31
2022-10-06T05:33:50.307Z,19.34
2022-10-06T05:36:19.743Z,19.29
2022-10-06T05:38:47.152Z,19.36
2022-10-06T05:41:14.749Z,19.25
2022-10-06T05:43:41.929Z,19.22
2022-10-06T05:46:17.597Z,19.30
2022-10-06T05:48:48.095Z,19.30
2022-10-06T05:51:15.045Z,19.29
2022-10-06T05:53:41.833Z,19.29
2022-10-06T05:56:16.651Z,19.31
2022-10-06T05:58:45.397Z,19.30
2022-10-06T06:01:14.847Z,19.30
2022-10-06T06:03:42.427Z,19.24
2022-10-06T06:06:20.151Z,19.35
2022-10-06T06:08:48.146Z,19.33
2022-10-06T06:11:14.703Z,19.29
2022-10-06T06:13:41.286Z,19.34
2022-10-06T06:16:10.718Z,19.20
2022-10-06T06:18:37.560Z,19.33
2022-10-06T06:21:07.386Z,19.30
2022-10-06T06:23:36.596Z,19.40
2022-10-06T06:26:11.211Z,19.40
2022-10-06T06:28:38.347Z,19.33
2022-10-06T06:31:19.165Z,19.38
2022-10-06T06:33:47.634Z,19.38
2022-10-06T06:36:20.357Z,19.37
2022-10-06T06:38:49.873Z,19.42
2022-10-06T06:41:45.074Z,19.40
2022-10-06T06:44:12.105Z,19.39
2022-10-06T06:46:40.156Z,19.32
2022-10-06T06:49:07.312Z,19.35
2022-10-06T06:51:36.867Z,19.27
2022-10-06T06:54:04.688Z,19.33
2022-10-06T06:56:35.329Z,19.33
2022-10-06T06:59:06.650Z,19.42
2022-10-06T07:01:33.314Z,19.30
2022-10-06T07:03:59.960Z,19.31
2022-10-06T07:06:28.764Z,19.39
2022-10-06T07:08:59.355Z,19.38
2022-10-06T07:11:25.861Z,19.32
2022-10-06T07:13:54.349Z,19.34
2022-10-06T07:16:41.044Z,19.47
2022-10-06T07:19:28.825Z,19.42
2022-10-06T07:22:38.768Z,19.48
2022-10-06T07:25:25.057Z,19.49
2022-10-06T07:27:52.540Z,19.44
2022-10-06T07:30:24.525Z,19.52
2022-10-06T07:32:51.770Z,19.53
2022-10-06T07:35:20.353Z,19.63
2022-10-06T07:37:47.481Z,19.67
2022-10-06T07:40:14.980Z,19.67
2022-10-06T07:42:48.258Z,19.70
2022-10-06T07:45:34.422Z,19.76
2022-10-06T07:48:02.210Z,19.70
2022-10-06T07:50:28.791Z,19.62
2022-10-06T07:52:55.854Z,19.80
2022-10-06T07:55:22.452Z,19.72
2022-10-06T07:57:51.039Z,19.85
2022-10-06T08:00:20.509Z,19.83
2022-10-06T08:02:47.345Z,19.89
2022-10-06T08:05:14.081Z,19.89
2022-10-06T08:07:41.270Z,20.01
2022-10-06T08:10:08.120Z,19.92
2022-10-06T08:12:34.835Z,19.87
2022-10-06T08:15:06.862Z,19.86
2022-10-06T08:17:35.656Z,19.93
2022-10-06T08:20:03.434Z,19.91
2022-10-06T08:22:30.229Z,19.94
2022-10-06T08:25:06.283Z,19.91
2022-10-06T08:27:35.092Z,19.99
2022-10-06T08:30:02.025Z,19.98
2022-10-06T08:32:28.669Z,20.01
2022-10-06T08:34:55.708Z,20.08
2022-10-06T08:37:23.910Z,20.12
2022-10-06T08:39:51.438Z,20.09
2022-10-06T08:42:32.338Z,20.09
2022-10-06T08:45:02.896Z,20.12
2022-10-06T08:47:34.321Z,20.02
2022-10-06T08:50:01.086Z,19.99
2022-10-06T08:52:57.035Z,20.09
2022-10-06T08:55:30.766Z,20.19
2022-10-06T09:00:43.173Z,20.04
2022-10-06T09:03:18.666Z,20.14
2022-10-06T09:05:46.260Z,20.14
2022-10-06T09:08:31.489Z,20.19
2022-10-06T09:11:27.605Z,20.28
2022-10-06T09:13:58.207Z,20.31
2022-10-06T09:16:32.582Z,20.43
2022-10-06T09:19:09.441Z,20.49
2022-10-06T09:21:50.974Z,20.38
2022-10-06T09:24:20.501Z,20.52
2022-10-06T09:26:48.689Z,20.50
2022-10-06T09:29:15.714Z,20.44
2022-10-06T09:31:44.653Z,20.53
2022-10-06T09:34:12.610Z,20.60
2022-10-06T09:37:03.124Z,20.62
2022-10-06T09:39:36.915Z,20.57
2022-10-06T09:42:17.698Z,20.66
2022-10-06T09:44:50.945Z,20.66
2022-10-06T09:47:24.386Z,20.68
2022-10-06T09:50:11.887Z,20.72
2022-10-06T09:52:39.506Z,20.62
2022-10-06T09:55:14.730Z,20.76
2022-10-06T09:57:52.151Z,20.84
2022-10-06T10:00:36.238Z,20.73
2022-10-06T10:03:08.637Z,20.61
2022-10-06T10:05:37.676Z,20.79
2022-10-06T10:08:19.823Z,20.83
2022-10-06T10:10:46.466Z,20.71
2022-10-06T10:13:24.142Z,20.76
2022-10-06T10:16:01.446Z,20.84
2022-10-06T10:18:30.368Z,20.72
2022-10-06T10:21:06.178Z,20.72
2022-10-06T10:23:43.649Z,20.76
2022-10-06T10:26:44.945Z,20.79
2022-10-06T10:30:01.701Z,20.73
2022-10-06T10:32:59.476Z,20.87
2022-10-06T10:35:41.987Z,20.96
2022-10-06T10:38:22.733Z,20.82
2022-10-06T10:40:51.527Z,20.74
2022-10-06T10:43:48.250Z,20.85
2022-10-06T10:46:23.102Z,20.71
2022-10-06T10:48:56.778Z,20.75
2022-10-06T10:51:28.908Z,20.74
2022-10-06T10:54:01.859Z,20.78
2022-10-06T10:56:29.620Z,20.71
2022-10-06T10:59:07.169Z,20.81
2022-10-06T11:01:50.417Z,20.81
2022-10-06T11:04:17.094Z,20.72
2022-10-06T11:06:59.460Z,20.73
2022-10-06T11:09:45.370Z,20.91
2022-10-06T11:12:24.016Z,20.87
2022-10-06T11:15:14.087Z,20.84
2022-10-06T11:17:47.185Z,20.72
2022-10-06T11:20:39.000Z,20.79
2022-10-06T11:23:32.280Z,20.81
2022-10-06T11:26:21.518Z,20.90
2022-10-06T11:29:06.607Z,20.91
2022-10-06T11:31:41.205Z,20.93
2022-10-06T11:34:10.021Z,20.91
2022-10-06T11:37:13.367Z,21.01
2022-10-06T11:40:22.716Z,21.05
2022-10-06T11:43:18.327Z,21.05
2022-10-06T11:46:00.003Z,21.02
2022-10-06T11:48:28.647Z,21.15
2022-10-06T11:50:56.082Z,21.09
2022-10-06T11:53:35.036Z,21.06
2022-10-06T11:56:16.729Z,21.21
2022-10-06T11:58:52.048Z,21.12
2022-10-06T12:01:49.857Z,21.10
2022-10-06T12:04:21.973Z,21.19
2022-10-06T12:06:50.749Z,21.10
2022-10-06T12:09:27.240Z,21.28
2022-10-06T12:11:55.635Z,21.18
2022-10-06T12:18:21.000Z,21.26
2022-10-06T12:20:56.360Z,21.24
2022-10-06T12:23:56.689Z,21.36
2022-10-06T12:26:34.553Z,21.48
2022-10-06T12:29:14.370Z,21.47
2022-10-06T12:32:18.417Z,21.37
2022-10-06T12:35:19.155Z,21.48
2022-10-06T12:37:54.798Z,21.42
2022-10-06T12:40:51.289Z,21.52
2022-10-06T12:43:17.806Z,21.59
2022-10-06T12:45:48.609Z,21.50
2022-10-06T12:48:23.276Z,21.52
2022-10-06T12:50:55.646Z,21.45
2022-10-06T12:53:28.084Z,21.64
2022-10-06T12:56:00.005Z,21.64
2022-10-06T12:58:32.388Z,21.66
2022-10-06T13:01:04.893Z,21.63
2022-10-06T13:03:31.564Z,21.69
2022-10-06T13:06:03.243Z,21.68
2022-10-06T13:08:37.335Z,21.75
2022-10-06T13:11:12.741Z,21.77
2022-10-06T13:13:46.822Z,21.75
2022-10-06T13:16:14.775Z,21.74
2022-10-06T13:18:41.524Z,21.75
2022-10-06T13:21:16.165Z,21.76
2022-10-06T13:23:43.375Z,21.74
2022-10-06T13:26:22.009Z,21.71
2022-10-06T13:28:53.549Z,21.73
2022-10-06T13:31:27.307Z,21.75
2022-10-06T13:34:23.081Z,21.74
2022-10-06T13:36:50.810Z,21.79
2022-10-06T13:39:31.445Z,21.88
2022-10-06T13:42:11.056Z,21.89
2022-10-06T13:44:40.748Z,21.87
2022-10-06T13:47:15.528Z,21.86
2022-10-06T13:50:01.985Z,21.93
2022-10-06T13:52:37.097Z,21.87
2022-10-06T13:55:06.040Z,21.94
2022-10-06T13:57:46.762Z,21.88
2022-10-06T14:00:21.645Z,21.90
2022-10-06T14:03:04.845Z,21.97
2022-10-06T14:05:39.424Z,21.97
2022-10-06T14:08:11.677Z,21.97
2022-10-06T14:10:41.297Z,22.04
2022-10-06T14:13:24.800Z,21.97
2022-10-06T14:15:53.087Z,22.02
2022-10-06T14:18:26.808Z,22.07
2022-10-06T14:20:57.463Z,22.03
2022-10-06T14:23:44.169Z,22.03
2022-10-06T14:26:12.950Z,22.08
2022-10-06T14:28:40.923Z,22.05
2022-10-06T14:31:12.028Z,22.05
2022-10-06T14:33:40.945Z,21.99
2022-10-06T14:36:22.241Z,21.99
2022-10-06T14:38:50.506Z,21.83
2022-10-06T14:41:19.407Z,21.93
2022-10-06T14:43:47.589Z,21.95
2022-10-06T14:46:15.595Z,21.98
2022-10-06T14:48:42.242Z,22.04
2022-10-06T14:51:09.261Z,22.08
2022-10-06T14:53:37.620Z,22.11
2022-10-06T14:56:08.982Z,22.05
2022-10-06T14:58:39.795Z,22.11
2022-10-06T15:01:07.609Z,22.15
2022-10-06T15:03:35.168Z,22.13
2022-10-06T15:06:25.759Z,22.22
2022-10-06T15:08:56.832Z,22.17
2022-10-06T15:11:25.937Z,22.19
2022-10-06T15:13:54.859Z,22.19
2022-10-06T15:16:24.642Z,22.20
2022-10-06T15:18:51.729Z,22.19
2022-10-06T15:21:19.222Z,22.27
2022-10-06T15:23:48.007Z,22.22
2022-10-06T15:26:33.288Z,22.18
2022-10-06T15:29:05.825Z,22.18
2022-10-06T15:31:40.475Z,22.22
2022-10-06T15:34:09.630Z,22.23
2022-10-06T15:36:38.040Z,22.23
2022-10-06T15:39:18.576Z,22.20
2022-10-06T15:41:45.669Z,22.15
2022-10-06T15:44:13.332Z,22.16
2022-10-06T15:46:44.768Z,22.07
2022-10-06T15:49:19.933Z,22.15
2022-10-06T15:51:49.153Z,22.11
2022-10-06T15:54:21.017Z,22.12
2022-10-06T15:56:48.963Z,22.07
2022-10-06T15:59:16.647Z,22.04
2022-10-06T16:01:47.645Z,22.07
2022-10-06T16:04:40.285Z,22.01
2022-10-06T16:07:08.846Z,22.05
2022-10-06T16:09:43.156Z,22.05
2022-10-06T16:12:11.607Z,22.00
2022-10-06T16:14:38.478Z,22.00
2022-10-06T16:17:06.497Z,22.00
2022-10-06T16:19:33.449Z,21.94
2022-10-06T16:22:00.889Z,21.93
2022-10-06T16:24:27.472Z,21.97
2022-10-06T16:26:54.345Z,21.92
2022-10-06T16:29:21.573Z,21.87
2022-10-06T16:31:48.825Z,21.94
2022-10-06T16:34:15.529Z,21.92
2022-10-06T16:36:42.093Z,21.88
2022-10-06T16:39:13.904Z,21.92
2022-10-06T16:41:40.666Z,21.93
2022-10-06T16:44:07.197Z,21.87
2022-10-06T16:46:33.950Z,21.92
2022-10-06T16:49:01.602Z,21.85
2022-10-06T16:51:29.344Z,21.84
2022-10-06T16:54:07.093Z,21.88
2022-10-06T16:56:39.253Z,21.85
2022-10-06T16:59:14.622Z,21.90
2022-10-06T17:01:41.830Z,21.87
2022-10-06T17:04:11.151Z,21.88
2022-10-06T17:06:39.915Z,21.89
2022-10-06T17:09:08.311Z,21.94
2022-10-06T17:11:35.944Z,21.85
2022-10-06T17:14:03.303Z,21.86
2022-10-06T17:16:32.390Z,21.87
2022-10-06T17:18:59.221Z,21.85
2022-10-06T17:21:44.859Z,21.86
2022-10-06T17:24:12.704Z,21.86
2022-10-06T17:26:41.694Z,21.87
2022-10-06T17:29:12.897Z,21.94
2022-10-06T17:31:42.194Z,21.89
2022-10-06T17:34:18.219Z,21.82
2022-10-06T17:36:48.977Z,21.80
2022-10-06T17:39:18.241Z,21.80
2022-10-06T17:41:46.577Z,21.78
2022-10-06T17:44:18.851Z,21.73
2022-10-06T17:46:45.826Z,21.71
2022-10-06T17:49:15.072Z,21.70
2022-10-06T17:51:45.181Z,21.76
2022-10-06T17:54:16.201Z,21.67
2022-10-06T17:56:47.038Z,21.70
2022-10-06T17:59:19.123Z,21.70
2022-10-06T18:01:45.839Z,21.71
2022-10-06T18:04:16.164Z,21.66
2022-10-06T18:06:43.744Z,21.64
2022-10-06T18:09:10.609Z,21.64
2022-10-06T18:11:43.035Z,21.70
2022-10-06T18:14:16.737Z,21.72
2022-10-06T18:16:58.326Z,21.75
2022-10-06T18:19:30.548Z,21.71
2022-10-06T18:22:11.625Z,21.72
2022-10-06T18:24:38.722Z,21.62
2022-10-06T18:27:06.557Z,21.61
2022-10-06T18:29:35.176Z,21.67
2022-10-06T18:32:53.416Z,21.74
2022-10-06T18:37:35.333Z,21.79
2022-10-06T18:40:05.904Z,21.72
2022-10-06T18:42:32.694Z,21.78
2022-10-06T18:45:17.525Z,21.73
2022-10-06T18:48:02.609Z,21.68
2022-10-06T18:50:29.217Z,21.70
2022-10-06T18:52:56.905Z,21.66
2022-10-06T18:55:23.535Z,21.68
2022-10-06T18:57:50.519Z,21.66
2022-10-06T19:00:17.493Z,21.69
2022-10-06T19:02:48.328Z,21.62
2022-10-06T19:05:15.453Z,21.56
2022-10-06T19:07:43.458Z,21.62
2022-10-06T19:10:10.375Z,21.58
2022-10-06T19:12:36.913Z,21.59
2022-10-06T19:15:03.971Z,21.63
2022-10-06T19:17:30.497Z,21.59
2022-10-06T19:19:57.083Z,21.53
2022-10-06T19:22:25.101Z,21.59
2022-10-06T19:24:52.242Z,21.52
2022-10-06T19:27:24.141Z,21.48
2022-10-06T19:29:54.210Z,21.51
2022-10-06T19:32:26.706Z,21.53
2022-10-06T19:34:58.890Z,21.47
2022-10-06T19:37:27.707Z,21.51
2022-10-06T19:39:54.243Z,21.47
2022-10-06T19:42:39.385Z,21.45
2022-10-06T19:45:06.736Z,21.48
2022-10-06T19:47:33.415Z,21.47
2022-10-06T19:50:03.871Z,21.48
2022-10-06T19:52:31.497Z,21.44
2022-10-06T19:54:58.440Z,21.40
2022-10-06T19:57:28.166Z,21.43
2022-10-06T19:59:54.828Z,21.47
2022-10-06T20:02:21.398Z,21.48
2022-10-06T20:04:47.965Z,21.38
2022-10-06T20:07:14.549Z,21.35
2022-10-06T20:09:41.124Z,21.39
2022-10-06T20:12:07.736Z,21.47
2022-10-06T20:14:34.368Z,21.48
2022-10-06T20:17:02.673Z,21.48
2022-10-06T20:19:29.337Z,21.43
2022-10-06T20:21:55.985Z,21.40
2022-10-06T20:24:24.552Z,21.43
2022-10-06T20:26:52.283Z,21.38
2022-10-06T20:29:21.506Z,21.34
2022-10-06T20:31:50.561Z,21.37
2022-10-06T20:34:21.296Z,21.39
2022-10-06T20:36:50.686Z,21.43
2022-10-06T20:39:39.790Z,21.43
2022-10-06T20:42:10.731Z,21.38
2022-10-06T20:44:41.343Z,21.36
2022-10-06T20:47:08.919Z,21.24
2022-10-06T20:49:35.558Z,21.24
2022-10-06T20:52:03.251Z,21.30
2022-10-06T20:54:35.155Z,21.23
2022-10-06T20:57:04.121Z,21.18
2022-10-06T20:59:31.279Z,21.20
2022-10-06T21:02:00.116Z,21.20
2022-10-06T21:04:27.629Z,21.22
2022-10-06T21:06:54.350Z,21.19
2022-10-06T21:09:20.940Z,21.19
2022-10-06T21:11:48.905Z,21.27
2022-10-06T21:14:15.901Z,21.16
2022-10-06T21:16:44.081Z,21.13
2022-10-06T21:19:18.058Z,21.13
2022-10-06T21:21:49.834Z,21.14
2022-10-06T21:24:16.584Z,21.12
2022-10-06T21:26:43.147Z,21.06
2022-10-06T21:29:12.882Z,21.09
2022-10-06T21:31:39.825Z,21.07
2022-10-06T21:34:06.534Z,21.14
2022-10-06T21:36:33.110Z,21.04
2022-10-06T21:39:01.479Z,20.98
2022-10-06T21:41:31.507Z,21.03
2022-10-06T21:44:10.005Z,21.04
2022-10-06T21:46:49.401Z,21.04
2022-10-06T21:49:18.181Z,20.96
2022-10-06T21:51:46.720Z,20.94
2022-10-06T21:54:14.056Z,21.03
2022-10-06T21:56:40.725Z,20.99
2022-10-06T21:59:08.126Z,20.95
2022-10-06T22:01:37.287Z,20.93
2022-10-06T22:04:04.542Z,20.91
2022-10-06T22:06:33.045Z,20.90
2022-10-06T22:09:00.309Z,20.99
2022-10-06T22:11:29.313Z,20.99
2022-10-06T22:14:00.751Z,20.89
2022-10-06T22:16:30.044Z,20.95
2022-10-06T22:18:56.951Z,20.81
2022-10-06T22:21:28.984Z,20.93
2022-10-06T22:23:58.519Z,20.90
2022-10-06T22:26:26.039Z,20.86
2022-10-06T22:28:54.543Z,20.92
2022-10-06T22:31:25.769Z,20.92
2022-10-06T22:33:58.303Z,20.90
2022-10-06T22:36:26.233Z,20.79
2022-10-06T22:38:52.946Z,20.85
2022-10-06T22:41:19.766Z,20.83
2022-10-06T22:43:46.364Z,20.82
2022-10-06T22:46:13.305Z,20.85
2022-10-06T22:48:40.280Z,20.70
2022-10-06T22:51:07.360Z,20.76
2022-10-06T22:53:34.404Z,20.72
2022-10-06T22:56:02.112Z,20.73
2022-10-06T22:58:28.813Z,20.73
2022-10-06T23:00:55.894Z,20.68
2022-10-06T23:03:23.000Z,20.74
2022-10-06T23:06:00.109Z,20.80
2022-10-06T23:08:31.358Z,20.68
2022-10-06T23:11:09.615Z,20.73
2022-10-06T23:13:36.412Z,20.67
2022-10-06T23:16:08.486Z,20.64
2022-10-06T23:18:36.892Z,20.65
2022-10-06T23:21:07.961Z,20.73
2022-10-06T23:23:35.033Z,20.67
2022-10-06T23:26:11.078Z,20.62
2022-10-06T23:28:38.240Z,20.55
2022-10-06T23:31:07.060Z,20.58
2022-10-06T23:33:34.530Z,20.55
2022-10-06T23:36:03.474Z,20.64
2022-10-06T23:38:30.134Z,20.64
2022-10-06T23:40:56.813Z,20.63
2022-10-06T23:43:23.905Z,20.58
2022-10-06T23:45:50.783Z,20.60
2022-10-06T23:48:17.417Z,20.51
2022-10-06T23:50:55.182Z,20.48
2022-10-06T23:53:21.746Z,20.46
2022-10-06T23:55:48.313Z,20.48
2022-10-06T23:58:14.957Z,20.36
